createdAt,value
2023-05-09T00:02:08.056Z,2.10
2023-05-09T00:04:35.488Z,2.13
2023-05-09T00:07:02.316Z,2.10
2023-05-09T00:09:29.068Z,2.00
2023-05-09T00:11:55.979Z,1.70
2023-05-09T00:14:22.664Z,1.97
2023-05-09T00:16:49.483Z,2.00
2023-05-09T00:19:16.251Z,2.00
2023-05-09T00:21:42.970Z,2.23
2023-05-09T00:24:09.542Z,1.93
2023-05-09T00:26:36.130Z,1.87
2023-05-09T00:29:02.719Z,2.20
2023-05-09T00:31:29.359Z,2.73
2023-05-09T00:33:56.131Z,2.10
2023-05-09T00:36:23.438Z,2.23
2023-05-09T00:38:50.100Z,2.37
2023-05-09T00:41:18.023Z,2.00
2023-05-09T00:43:44.661Z,2.37
2023-05-09T00:46:11.812Z,2.63
2023-05-09T00:48:38.565Z,2.30
2023-05-09T00:51:05.300Z,2.60
2023-05-09T00:53:32.535Z,2.30
2023-05-09T00:56:00.614Z,2.47
2023-05-09T00:58:27.434Z,2.10
2023-05-09T01:00:54.046Z,2.30
2023-05-09T01:03:20.856Z,2.43
2023-05-09T01:05:58.589Z,2.10
2023-05-09T01:08:31.266Z,2.20
2023-05-09T01:11:04.840Z,2.27
2023-05-09T01:14:06.314Z,2.03
2023-05-09T01:16:47.406Z,2.73
2023-05-09T01:19:46.033Z,2.60
2023-05-09T01:22:16.297Z,2.13
2023-05-09T01:25:01.807Z,2.60
2023-05-09T01:27:51.104Z,2.63
2023-05-09T01:30:20.030Z,2.60
2023-05-09T01:32:51.460Z,2.70
2023-05-09T01:35:21.642Z,2.20
2023-05-09T01:37:51.011Z,2.40
2023-05-09T01:40:20.825Z,2.90
2023-05-09T01:43:07.142Z,2.60
2023-05-09T01:45:34.867Z,2.20
2023-05-09T01:48:02.967Z,2.90
2023-05-09T01:50:30.748Z,2.53
2023-05-09T01:52:59.687Z,2.27
2023-05-09T01:55:34.194Z,2.90
2023-05-09T01:58:01.984Z,2.53
2023-05-09T02:00:29.148Z,2.43
2023-05-09T02:02:58.358Z,2.63
2023-05-09T02:05:28.360Z,3.07
2023-05-09T02:08:00.774Z,2.70
2023-05-09T02:10:28.768Z,3.17
2023-05-09T02:12:56.288Z,3.00
2023-05-09T02:15:24.303Z,2.57
2023-05-09T02:17:50.930Z,2.80
2023-05-09T02:20:19.786Z,2.93
2023-05-09T02:22:47.848Z,2.60
2023-05-09T02:25:18.665Z,2.40
2023-05-09T02:27:46.789Z,2.63
2023-05-09T02:30:23.473Z,2.90
2023-05-09T02:32:57.396Z,2.60
2023-05-09T02:35:26.100Z,3.00
2023-05-09T02:37:53.498Z,2.73
2023-05-09T02:40:20.862Z,2.93
2023-05-09T02:42:47.452Z,2.70
2023-05-09T02:45:14.424Z,2.63
2023-05-09T02:47:41.224Z,2.90
2023-05-09T02:50:08.351Z,2.97
2023-05-09T02:52:35.049Z,2.93
2023-05-09T02:55:02.526Z,3.23
2023-05-09T02:57:29.185Z,2.87
2023-05-09T02:59:55.889Z,3.00
2023-05-09T03:02:23.885Z,3.17
2023-05-09T03:04:50.730Z,2.80
2023-05-09T03:07:17.385Z,3.20
2023-05-09T03:09:44.050Z,3.27
2023-05-09T03:12:10.962Z,3.07
2023-05-09T03:14:37.641Z,3.17
2023-05-09T03:17:04.281Z,3.83
2023-05-09T03:19:30.961Z,3.00
2023-05-09T03:21:57.598Z,3.57
2023-05-09T03:24:26.722Z,2.97
2023-05-09T03:26:53.320Z,2.77
2023-05-09T03:29:20.025Z,3.40
2023-05-09T03:31:46.902Z,3.33
2023-05-09T03:34:15.319Z,3.00
2023-05-09T03:36:43.720Z,4.13
2023-05-09T03:39:10.810Z,3.77
2023-05-09T03:41:37.725Z,2.80
2023-05-09T03:44:05.164Z,3.60
2023-05-09T03:46:31.833Z,3.87
2023-05-09T03:48:58.582Z,3.43
2023-05-09T03:51:25.684Z,3.63
2023-05-09T03:53:52.423Z,3.43
2023-05-09T03:56:19.082Z,3.50
2023-05-09T03:58:45.717Z,2.80
2023-05-09T04:01:12.354Z,3.67
2023-05-09T04:03:39.266Z,3.50
2023-05-09T04:06:06.212Z,3.47
2023-05-09T04:08:33.084Z,3.47
2023-05-09T04:10:59.696Z,3.87
2023-05-09T04:13:26.505Z,3.80
2023-05-09T04:15:53.211Z,3.70
2023-05-09T04:18:19.855Z,4.20
2023-05-09T04:20:46.470Z,3.70
2023-05-09T04:23:13.159Z,4.17
2023-05-09T04:25:40.094Z,3.50
2023-05-09T04:28:06.679Z,4.47
2023-05-09T04:30:33.332Z,3.80
2023-05-09T04:33:00.049Z,4.33
2023-05-09T04:35:27.250Z,3.87
2023-05-09T04:37:53.952Z,4.33
2023-05-09T04:40:20.596Z,4.93
2023-05-09T04:42:47.187Z,4.50
2023-05-09T04:45:14.549Z,4.60
2023-05-09T04:47:41.345Z,10.77
2023-05-09T04:50:08.417Z,10.93
2023-05-09T04:52:35.051Z,9.80
2023-05-09T04:55:02.383Z,12.27
2023-05-09T04:57:29.059Z,5.40
2023-05-09T04:59:55.750Z,3.90
2023-05-09T05:02:22.693Z,3.90
2023-05-09T05:04:49.530Z,3.33
2023-05-09T05:07:16.112Z,3.53
2023-05-09T05:09:42.729Z,3.23
2023-05-09T05:12:09.881Z,3.50
2023-05-09T05:14:37.012Z,3.13
2023-05-09T05:17:03.611Z,3.87
2023-05-09T05:19:30.368Z,4.10
2023-05-09T05:21:56.978Z,3.77
2023-05-09T05:24:23.603Z,4.13
2023-05-09T05:26:50.330Z,3.70
2023-05-09T05:29:17.888Z,3.33
2023-05-09T05:31:44.584Z,3.20
2023-05-09T05:34:11.349Z,3.30
2023-05-09T05:36:38.051Z,3.30
2023-05-09T05:39:04.636Z,3.13
2023-05-09T05:41:31.440Z,2.53
2023-05-09T05:43:58.048Z,2.37
2023-05-09T05:46:24.739Z,2.30
2023-05-09T05:48:51.453Z,2.93
2023-05-09T05:51:18.133Z,2.77
2023-05-09T05:53:44.771Z,2.87
2023-05-09T05:56:11.455Z,2.20
2023-05-09T05:58:38.350Z,3.50
2023-05-09T06:01:05.149Z,2.40
2023-05-09T06:03:32.238Z,2.40
2023-05-09T06:05:59.390Z,2.50
2023-05-09T06:08:25.988Z,3.00
2023-05-09T06:10:52.608Z,2.30
2023-05-09T06:13:19.336Z,2.30
2023-05-09T06:15:46.006Z,2.47
2023-05-09T06:18:12.780Z,2.20
2023-05-09T06:20:39.524Z,2.40
2023-05-09T06:23:06.122Z,2.20
2023-05-09T06:25:32.733Z,2.30
2023-05-09T06:27:59.309Z,2.40
2023-05-09T06:30:27.025Z,1.60
2023-05-09T06:32:54.881Z,1.60
2023-05-09T06:35:21.856Z,1.57
2023-05-09T06:37:49.135Z,1.53
2023-05-09T06:40:17.030Z,1.73
2023-05-09T06:42:43.804Z,1.57
2023-05-09T06:45:11.207Z,1.50
2023-05-09T06:47:37.868Z,1.67
2023-05-09T06:50:04.765Z,1.87
2023-05-09T06:52:31.496Z,1.63
2023-05-09T06:54:58.152Z,1.73
2023-05-09T06:57:38.213Z,1.80
2023-05-09T07:00:05.828Z,1.90
2023-05-09T07:02:32.584Z,1.60
2023-05-09T07:04:59.327Z,2.10
2023-05-09T07:07:26.047Z,1.10
2023-05-09T07:09:55.264Z,1.40
2023-05-09T07:12:27.422Z,1.37
2023-05-09T07:14:54.014Z,1.33
2023-05-09T07:17:23.373Z,1.27
2023-05-09T07:19:50.944Z,1.30
2023-05-09T07:22:17.668Z,1.37
2023-05-09T07:24:44.635Z,1.20
2023-05-09T07:27:11.605Z,1.40
2023-05-09T07:29:38.405Z,1.40
2023-05-09T07:32:05.320Z,1.40
2023-05-09T07:34:32.009Z,1.10
2023-05-09T07:36:58.785Z,1.83
2023-05-09T07:39:25.701Z,1.40
2023-05-09T07:41:52.321Z,1.67
2023-05-09T07:44:18.907Z,1.73
2023-05-09T07:46:45.560Z,1.53
2023-05-09T07:49:12.156Z,1.30
2023-05-09T07:51:38.869Z,1.30
2023-05-09T07:54:05.729Z,1.67
2023-05-09T07:56:32.453Z,1.20
2023-05-09T07:58:59.049Z,1.60
2023-05-09T08:01:25.676Z,1.60
2023-05-09T08:03:52.491Z,1.90
2023-05-09T08:06:19.366Z,1.27
2023-05-09T08:08:46.107Z,1.50
2023-05-09T08:11:12.655Z,2.10
2023-05-09T08:13:39.367Z,1.53
2023-05-09T08:16:06.714Z,1.37
2023-05-09T08:18:33.298Z,1.70
2023-05-09T08:21:00.008Z,1.50
2023-05-09T08:23:26.920Z,1.90
2023-05-09T08:25:54.689Z,1.73
2023-05-09T08:28:24.304Z,2.00
2023-05-09T08:30:52.092Z,2.23
2023-05-09T08:33:19.238Z,2.43
2023-05-09T08:35:46.033Z,1.60
2023-05-09T08:38:12.623Z,1.90
2023-05-09T08:40:41.073Z,1.50
2023-05-09T08:43:08.100Z,2.07
2023-05-09T08:45:58.438Z,1.90
2023-05-09T08:48:25.906Z,1.00
2023-05-09T08:50:53.277Z,1.50
2023-05-09T08:53:21.570Z,1.60
2023-05-09T08:55:49.503Z,1.57
2023-05-09T08:58:17.195Z,1.40
2023-05-09T09:00:44.180Z,1.60
2023-05-09T09:03:11.155Z,1.37
2023-05-09T09:05:42.508Z,1.70
2023-05-09T09:08:11.190Z,2.00
2023-05-09T09:10:42.730Z,1.90
2023-05-09T09:13:11.450Z,1.40
2023-05-09T09:15:40.621Z,1.40
2023-05-09T09:18:10.049Z,1.50
2023-05-09T09:20:49.954Z,1.00
2023-05-09T09:23:22.093Z,1.30
2023-05-09T09:25:49.145Z,1.37
2023-05-09T09:28:15.873Z,1.60
2023-05-09T09:30:48.080Z,1.53
2023-05-09T09:33:21.941Z,1.70
2023-05-09T09:35:56.953Z,1.40
2023-05-09T09:38:24.590Z,1.20
2023-05-09T09:40:58.736Z,1.27
2023-05-09T09:43:29.294Z,1.20
2023-05-09T09:45:57.290Z,1.50
2023-05-09T09:48:25.736Z,1.23
2023-05-09T09:50:54.956Z,1.37
2023-05-09T09:53:21.964Z,1.73
2023-05-09T09:55:53.295Z,1.60
2023-05-09T09:58:25.156Z,1.53
2023-05-09T10:01:09.114Z,1.27
2023-05-09T10:03:41.222Z,1.43
2023-05-09T10:06:12.459Z,1.20
2023-05-09T10:08:40.214Z,1.43
2023-05-09T10:11:07.391Z,1.50
2023-05-09T10:13:36.475Z,1.77
2023-05-09T10:16:04.342Z,1.67
2023-05-09T10:18:31.902Z,1.50
2023-05-09T10:21:03.947Z,1.47
2023-05-09T10:23:32.866Z,1.73
2023-05-09T10:26:16.600Z,1.60
2023-05-09T10:28:45.750Z,1.33
2023-05-09T10:31:18.146Z,1.50
2023-05-09T10:33:49.204Z,2.17
2023-05-09T10:36:21.404Z,1.50
2023-05-09T10:38:49.424Z,2.00
2023-05-09T10:41:18.790Z,1.97
2023-05-09T10:43:46.109Z,1.80
2023-05-09T10:46:13.683Z,1.60
2023-05-09T10:48:42.204Z,1.70
2023-05-09T10:51:09.574Z,1.90
2023-05-09T10:53:45.189Z,1.60
2023-05-09T10:56:31.862Z,1.60
2023-05-09T10:58:59.493Z,2.23
2023-05-09T11:01:37.270Z,2.47
2023-05-09T11:04:13.033Z,1.83
2023-05-09T11:06:44.069Z,1.80
2023-05-09T11:09:33.481Z,1.87
2023-05-09T11:12:06.099Z,2.03
2023-05-09T11:14:44.780Z,1.80
2023-05-09T11:17:13.979Z,2.07
2023-05-09T11:19:46.319Z,1.73
2023-05-09T11:22:32.181Z,2.10
2023-05-09T11:25:07.710Z,2.07
2023-05-09T11:27:40.098Z,2.13
2023-05-09T11:30:08.135Z,2.33
2023-05-09T11:33:00.935Z,2.20
2023-05-09T11:35:28.062Z,2.30
2023-05-09T11:38:05.630Z,2.30
2023-05-09T11:40:34.069Z,2.23
2023-05-09T11:43:01.448Z,2.27
2023-05-09T11:45:33.206Z,2.10
2023-05-09T11:48:01.252Z,2.53
2023-05-09T11:50:28.741Z,2.37
2023-05-09T11:52:55.391Z,2.40
2023-05-09T11:55:23.016Z,2.23
2023-05-09T11:57:54.131Z,2.17
2023-05-09T12:00:23.634Z,2.10
2023-05-09T12:02:51.365Z,2.40
2023-05-09T12:05:20.267Z,2.07
2023-05-09T12:07:47.828Z,2.17
2023-05-09T12:10:17.161Z,2.03
2023-05-09T12:12:46.690Z,2.50
2023-05-09T12:15:14.529Z,2.83
2023-05-09T12:17:45.306Z,2.27
2023-05-09T12:20:12.254Z,2.40
2023-05-09T12:22:43.101Z,2.47
2023-05-09T12:25:11.470Z,2.63
2023-05-09T12:27:39.619Z,2.33
2023-05-09T12:30:16.084Z,2.93
2023-05-09T12:32:43.885Z,2.73
2023-05-09T12:35:11.412Z,2.80
2023-05-09T12:37:38.475Z,3.27
2023-05-09T12:40:06.560Z,2.93
2023-05-09T12:42:35.016Z,3.30
2023-05-09T12:45:05.163Z,3.30
2023-05-09T12:47:32.435Z,3.70
2023-05-09T12:50:03.002Z,3.60
2023-05-09T12:52:54.589Z,3.57
2023-05-09T12:55:28.582Z,3.50
2023-05-09T12:58:03.563Z,3.40
2023-05-09T13:00:44.893Z,3.60
2023-05-09T13:03:29.666Z,4.00
2023-05-09T13:06:04.777Z,3.50
2023-05-09T13:08:32.010Z,3.30
2023-05-09T13:11:11.922Z,3.30
2023-05-09T13:13:42.534Z,3.70
2023-05-09T13:16:11.491Z,3.33
2023-05-09T13:18:38.769Z,3.37
2023-05-09T13:21:05.403Z,3.30
2023-05-09T13:23:32.014Z,3.43
2023-05-09T13:25:58.607Z,3.60
2023-05-09T13:28:25.220Z,4.60
2023-05-09T13:30:51.940Z,4.00
2023-05-09T13:33:26.013Z,3.30
2023-05-09T13:35:53.277Z,4.23
2023-05-09T13:38:19.976Z,6.10
2023-05-09T13:40:46.611Z,5.83
2023-05-09T13:43:13.225Z,4.67
2023-05-09T13:45:39.842Z,5.20
2023-05-09T13:48:06.577Z,3.77
2023-05-09T13:50:34.159Z,3.87
2023-05-09T13:53:00.873Z,3.20
2023-05-09T13:55:27.771Z,3.40
2023-05-09T13:57:54.917Z,3.07
2023-05-09T14:00:22.296Z,3.23
2023-05-09T14:02:48.967Z,3.90
2023-05-09T14:05:16.900Z,3.23
2023-05-09T14:07:43.675Z,2.97
2023-05-09T14:10:12.352Z,3.30
2023-05-09T14:12:44.557Z,2.80
2023-05-09T14:15:11.461Z,2.30
2023-05-09T14:17:38.260Z,2.77
2023-05-09T14:20:06.544Z,3.97
2023-05-09T14:22:33.187Z,4.30
2023-05-09T14:24:59.862Z,4.90
2023-05-09T14:27:26.451Z,6.73
2023-05-09T14:29:53.321Z,5.83
2023-05-09T14:32:20.044Z,6.77
2023-05-09T14:34:49.610Z,6.57
2023-05-09T14:37:16.403Z,7.03
2023-05-09T14:39:45.189Z,9.60
2023-05-09T14:42:14.166Z,7.00
2023-05-09T14:44:41.789Z,9.40
2023-05-09T14:47:09.610Z,14.27
2023-05-09T14:49:37.701Z,8.10
2023-05-09T14:52:04.425Z,5.00
2023-05-09T14:54:31.647Z,5.00
2023-05-09T14:56:59.575Z,2.70
2023-05-09T14:59:26.333Z,4.47
2023-05-09T15:01:53.022Z,2.70
2023-05-09T15:04:19.705Z,4.00
2023-05-09T15:06:46.323Z,3.67
2023-05-09T15:09:14.725Z,3.40
2023-05-09T15:11:48.451Z,4.03
2023-05-09T15:14:16.699Z,6.33
2023-05-09T15:16:43.677Z,4.20
2023-05-09T15:19:10.336Z,2.23
2023-05-09T15:21:36.999Z,2.20
2023-05-09T15:24:05.146Z,2.00
2023-05-09T15:26:32.294Z,2.40
2023-05-09T15:28:59.023Z,1.83
2023-05-09T15:31:25.887Z,2.00
2023-05-09T15:33:52.585Z,1.87
2023-05-09T15:36:19.241Z,1.50
2023-05-09T15:38:49.387Z,1.53
2023-05-09T15:41:16.747Z,1.47
2023-05-09T15:43:43.446Z,1.90
2023-05-09T15:46:10.156Z,1.67
2023-05-09T15:48:36.830Z,1.50
2023-05-09T15:51:04.214Z,1.70
2023-05-09T15:53:31.246Z,1.80
2023-05-09T15:55:57.934Z,1.87
2023-05-09T15:58:24.797Z,1.23
2023-05-09T16:00:51.592Z,2.10
2023-05-09T16:03:18.771Z,2.07
2023-05-09T16:05:45.619Z,3.10
2023-05-09T16:08:12.558Z,2.20
2023-05-09T16:10:39.233Z,4.30
2023-05-09T16:13:06.117Z,1.63
2023-05-09T16:15:32.966Z,5.13
2023-05-09T16:17:59.587Z,1.83
2023-05-09T16:20:26.269Z,1.77
2023-05-09T16:22:52.820Z,1.87
2023-05-09T16:25:19.695Z,1.60
2023-05-09T16:27:46.360Z,4.00
2023-05-09T16:30:13.740Z,2.80
2023-05-09T16:32:40.528Z,2.40
2023-05-09T16:35:07.726Z,2.73
2023-05-09T16:37:35.720Z,2.43
2023-05-09T16:40:02.912Z,1.90
2023-05-09T16:42:29.533Z,1.90
2023-05-09T16:44:57.321Z,1.67
2023-05-09T16:47:26.906Z,1.70
2023-05-09T16:49:53.559Z,1.63
2023-05-09T16:52:20.501Z,1.63
2023-05-09T16:54:47.126Z,1.63
2023-05-09T16:57:13.769Z,1.80
2023-05-09T16:59:40.661Z,1.83
2023-05-09T17:02:07.993Z,2.13
2023-05-09T17:04:36.819Z,2.10
2023-05-09T17:07:04.436Z,1.93
2023-05-09T17:09:32.069Z,2.07
2023-05-09T17:11:59.124Z,3.27
2023-05-09T17:14:26.759Z,4.33
2023-05-09T17:16:53.832Z,3.13
2023-05-09T17:19:23.495Z,2.40
2023-05-09T17:21:50.396Z,2.10
2023-05-09T17:24:17.375Z,3.17
2023-05-09T17:26:44.109Z,2.80
2023-05-09T17:29:10.779Z,2.90
2023-05-09T17:31:37.448Z,2.30
2023-05-09T17:34:05.582Z,2.40
2023-05-09T17:36:33.602Z,3.23
2023-05-09T17:39:00.845Z,2.20
2023-05-09T17:41:27.862Z,3.37
2023-05-09T17:43:57.283Z,2.60
2023-05-09T17:46:24.784Z,3.13
2023-05-09T17:48:51.731Z,3.60
2023-05-09T17:51:18.410Z,2.10
2023-05-09T17:53:44.985Z,2.70
2023-05-09T17:56:11.660Z,2.30
2023-05-09T17:58:38.253Z,4.63
2023-05-09T18:01:05.539Z,6.93
2023-05-09T18:03:32.682Z,7.07
2023-05-09T18:06:02.761Z,3.07
2023-05-09T18:08:29.942Z,2.53
2023-05-09T18:10:57.811Z,2.73
2023-05-09T18:13:24.742Z,2.27
2023-05-09T18:15:51.579Z,2.27
2023-05-09T18:18:18.552Z,2.40
2023-05-09T18:20:47.220Z,2.60
2023-05-09T18:23:15.305Z,2.30
2023-05-09T18:25:42.201Z,1.70
2023-05-09T18:28:09.425Z,2.10
2023-05-09T18:30:36.252Z,2.20
2023-05-09T18:33:03.497Z,2.03
2023-05-09T18:35:30.205Z,2.40
2023-05-09T18:37:56.973Z,2.27
2023-05-09T18:40:23.657Z,2.67
2023-05-09T18:42:50.376Z,2.13
2023-05-09T18:45:17.063Z,2.50
2023-05-09T18:47:43.796Z,2.60
2023-05-09T18:50:11.249Z,2.40
2023-05-09T18:52:37.922Z,2.30
2023-05-09T18:55:05.997Z,2.63
2023-05-09T18:57:33.933Z,2.73
2023-05-09T19:00:00.643Z,2.23
2023-05-09T19:02:27.462Z,2.47
2023-05-09T19:04:54.148Z,2.47
2023-05-09T19:07:20.879Z,2.40
2023-05-09T19:09:47.827Z,2.30
2023-05-09T19:12:16.418Z,2.50
2023-05-09T19:14:43.328Z,3.10
2023-05-09T19:17:10.976Z,2.50
2023-05-09T19:19:37.682Z,2.83
2023-05-09T19:22:04.991Z,3.07
2023-05-09T19:24:32.745Z,2.33
2023-05-09T19:26:59.337Z,3.10
2023-05-09T19:29:25.993Z,2.87
2023-05-09T19:31:52.623Z,3.40
2023-05-09T19:34:19.436Z,2.70
2023-05-09T19:36:46.213Z,3.10
2023-05-09T19:39:12.841Z,3.23
2023-05-09T19:41:39.468Z,2.87
2023-05-09T19:44:07.365Z,2.50
2023-05-09T19:46:35.306Z,3.00
2023-05-09T19:49:02.095Z,3.17
2023-05-09T19:51:28.851Z,3.60
2023-05-09T19:53:55.630Z,3.40
2023-05-09T19:56:23.331Z,3.40
2023-05-09T19:58:50.419Z,3.63
2023-05-09T20:01:19.098Z,3.60
2023-05-09T20:03:47.124Z,3.50
2023-05-09T20:06:14.034Z,3.83
2023-05-09T20:08:40.663Z,3.33
2023-05-09T20:11:07.847Z,3.10
2023-05-09T20:13:34.464Z,3.13
2023-05-09T20:16:02.795Z,3.13
2023-05-09T20:18:29.551Z,3.47
2023-05-09T20:20:56.120Z,3.07
2023-05-09T20:23:22.790Z,3.20
2023-05-09T20:25:49.385Z,3.20
2023-05-09T20:28:20.188Z,3.50
2023-05-09T20:30:47.151Z,2.90
2023-05-09T20:33:13.808Z,3.60
2023-05-09T20:35:43.137Z,3.03
2023-05-09T20:38:10.691Z,3.83
2023-05-09T20:40:37.273Z,3.07
2023-05-09T20:43:03.905Z,3.30
2023-05-09T20:45:30.565Z,3.50
2023-05-09T20:47:57.223Z,2.90
2023-05-09T20:50:23.875Z,3.30
2023-05-09T20:52:50.481Z,3.60
2023-05-09T20:55:17.120Z,3.10
2023-05-09T20:57:43.699Z,3.20
2023-05-09T21:00:10.916Z,2.93
2023-05-09T21:02:37.776Z,3.37
2023-05-09T21:05:04.737Z,3.50
2023-05-09T21:07:31.310Z,2.83
2023-05-09T21:09:58.316Z,3.53
2023-05-09T21:12:24.959Z,3.13
2023-05-09T21:14:51.553Z,2.83
2023-05-09T21:17:18.415Z,2.97
2023-05-09T21:19:45.713Z,3.33
2023-05-09T21:22:12.271Z,3.03
2023-05-09T21:24:38.868Z,3.77
2023-05-09T21:27:06.242Z,3.07
2023-05-09T21:29:32.907Z,2.53
2023-05-09T21:31:59.991Z,3.23
2023-05-09T21:34:26.648Z,3.20
2023-05-09T21:36:53.257Z,3.33
2023-05-09T21:39:19.854Z,3.23
2023-05-09T21:41:46.464Z,3.40
2023-05-09T21:44:13.248Z,3.63
2023-05-09T21:46:41.203Z,3.50
2023-05-09T21:49:08.036Z,3.07
2023-05-09T21:51:35.057Z,3.43
2023-05-09T21:54:01.640Z,3.20
2023-05-09T21:56:28.291Z,3.77
2023-05-09T21:58:54.997Z,3.30
2023-05-09T22:01:21.713Z,3.63
2023-05-09T22:03:48.504Z,2.83
2023-05-09T22:06:15.196Z,3.17
2023-05-09T22:08:41.769Z,3.00
2023-05-09T22:11:08.456Z,3.07
2023-05-09T22:13:36.465Z,3.20
2023-05-09T22:16:04.135Z,3.20
2023-05-09T22:18:31.395Z,2.77
2023-05-09T22:20:58.047Z,2.80
2023-05-09T22:23:24.718Z,3.17
2023-05-09T22:25:51.285Z,3.30
2023-05-09T22:28:17.932Z,4.17
2023-05-09T22:30:44.590Z,3.80
2023-05-09T22:33:11.405Z,3.13
2023-05-09T22:35:38.146Z,4.23
2023-05-09T22:38:04.803Z,4.63
2023-05-09T22:40:31.450Z,4.27
2023-05-09T22:42:58.035Z,2.57
2023-05-09T22:45:24.648Z,3.30
2023-05-09T22:47:51.313Z,2.70
2023-05-09T22:50:18.173Z,3.20
2023-05-09T22:52:44.939Z,3.43
2023-05-09T22:55:11.824Z,3.13
2023-05-09T22:57:38.508Z,2.67
2023-05-09T23:00:06.099Z,3.23
2023-05-09T23:02:32.832Z,2.47
2023-05-09T23:04:59.562Z,2.13
2023-05-09T23:07:26.473Z,2.60
2023-05-09T23:09:53.119Z,2.57
2023-05-09T23:12:19.891Z,2.83
2023-05-09T23:14:46.823Z,2.57
2023-05-09T23:17:13.469Z,2.97
2023-05-09T23:19:40.151Z,2.40
2023-05-09T23:22:06.849Z,3.90
2023-05-09T23:24:33.494Z,4.80
2023-05-09T23:27:02.535Z,2.60
2023-05-09T23:29:29.288Z,3.03
2023-05-09T23:31:55.995Z,2.93
2023-05-09T23:34:22.704Z,2.70
2023-05-09T23:36:49.340Z,2.63
2023-05-09T23:39:16.052Z,3.10
2023-05-09T23:41:42.886Z,2.70
2023-05-09T23:44:09.507Z,2.70
2023-05-09T23:46:36.152Z,2.83
2023-05-09T23:49:02.903Z,2.97
2023-05-09T23:51:29.561Z,3.07
2023-05-09T23:53:56.154Z,2.80
2023-05-09T23:56:22.922Z,2.60
2023-05-09T23:58:49.533Z,3.17
